Tropical Cyclones
[Index]
Main Index Home Page Stock Weather Photos Extreme Storms Discussion Storm News and Storm Chasing Reports Tropical Cyclones / Hurricanes / Typhoons Weather Data and Links Wild Fires / Bushfires Weather Observation Techniques Weather Picture Catalogue Tornado Pictures and Reports Stock Video Footage and DVDs for sale
Season 2003-2004 Tropical Cyclone KEN Track Map
Season 2003-2004 Summaries: [BoM-AU] [JTWC-AU] [JTWC-SIO] [JTWC-SPAC] [JTWC-SH]
<<- Previous TC | JTWC 2003-2004 Season | Next TC ->>

click for intensity scale information  Lat/long Grid: Show Hide

 Date Labels: Show Hide

Joint Typhoon Warning Centre Cyclone Data

Name: KEN

01 Jan 2004 06:00 UTC to 06 Jan 2004 12:00 UTC

    date/time    lat    long     hPa   cat  kts
2004-01-01 06   16.4   124.2    1006         15          
2004-01-01 12   16.4   123.1    1004         20          
2004-01-01 18   16.5   122.1    1002         25          
2004-01-02 00   16.5   121.1    1000         30          
2004-01-02 06   16.5   120.2     997         35          
2004-01-02 12   16.4   119.4     997         35          
2004-01-02 18   16.4   118.6     997         35          
2004-01-03 00   16.4   117.8     997         35          
2004-01-03 06   16.4   117.2     997         35          
2004-01-03 12   16.7   116.8     997         35          
2004-01-03 18   17.2   116.5     997         35          
2004-01-04 00   17.7   116.2     997         35          
2004-01-04 06   17.9   115.7     997         35          
2004-01-04 12   18.1   115.3     997         35          
2004-01-04 18   18.5   115.1     997         35          
2004-01-05 00   19.0   115.1     997         35          
2004-01-05 06   19.7   115.0     997         35          
2004-01-05 12   20.3   114.7    1000         30          
2004-01-05 18   20.9   114.3    1002         25          
2004-01-06 00   21.2   113.8    1002         25          
2004-01-06 06   21.2   113.4    1002         25          
2004-01-06 12   21.3   113.0    1004         20          
Winds are 1-min average.

Tropical cyclone tracks developed by Michael Bath using data from the Joint Typhoon Warning Centre Best Tracks and Google Maps.


[Australian Severe Weather index] [Copyright Notice] [Email Contacts] [Search This Site] [Privacy Policy]
Document: tropical_cyclone_ken.htm Updated: 28 June 2017